State University, North Carolina
Current Conditions -  °F | °C
As of 2:51 AM on Friday 24 Oct 2014 (Local Time) from KRDU Reporting Station
Broken Clouds Broken Clouds  
Wind Chill: 47°   Ceiling: 25000
Heat Index: 49°   Visibility: 10mi
Dew Point: 41°   Wind: 5mph
Humidity: 74%   Direction: 30°NNE
Pressure: 30"   Gusts: NA
Location:  35.8072°N, 78.7126°W
Report Text: KRDU 240651Z 03004KT 10SM BKN250 09/05 A3000 RMK AO2 SLP157 T00940050 $
Loading
Personal Weather Stations






























Interactive Weather Map
Tropical Storm Tracking
New forecast layout! Learn more

10-Day Weather Forecast

Advertisements
Track Severe Weather on mobile